Time;durP1;ratioP1;P1;durP2;ratioP2;P2;SDS_P1;SDS_P2;PMS_P1;PMS_P2;Temp;Humidity;BMP_temperature;BMP_pressure;BME280_temperature;BME280_humidity;BME280_pressure;Samples;Min_cycle;Max_cycle;Signal;HPM_P1;HPM_P2
2023/10/04 00:00:15;;;;;;;21.30;9.43;;;;;;;13.22;87.62;95919.63;5024724;28;20244;-69
2023/10/04 00:02:49;;;;;;;18.73;8.37;;;;;;;13.19;87.72;95918.19;5009004;28;20241;-69
2023/10/04 00:05:19;;;;;;;21.27;9.77;;;;;;;13.18;87.81;95921.00;5008578;28;20316;-70
2023/10/04 00:07:49;;;;;;;20.13;9.20;;;;;;;13.11;87.90;95922.78;5025303;28;20245;-69
2023/10/04 00:10:18;;;;;;;22.97;9.43;;;;;;;13.17;86.85;95920.19;5009278;28;20234;-69
2023/10/04 00:12:44;;;;;;;22.50;10.20;;;;;;;13.30;85.58;95917.63;5016629;28;20234;-70
2023/10/04 00:15:12;;;;;;;23.70;10.20;;;;;;;13.12;86.48;95914.69;5017792;28;20726;-68
2023/10/04 00:17:41;;;;;;;26.03;10.37;;;;;;;13.13;86.38;95908.44;5040887;28;20218;-69
2023/10/04 00:20:16;;;;;;;25.10;10.20;;;;;;;13.14;86.40;95911.84;5008664;28;20222;-69
2023/10/04 00:22:43;;;;;;;21.47;9.97;;;;;;;13.11;87.05;95910.41;4998527;28;20860;-68
2023/10/04 00:25:11;;;;;;;19.77;9.53;;;;;;;13.20;86.67;95905.84;5006107;28;20260;-70
2023/10/04 00:27:43;;;;;;;21.23;10.20;;;;;;;13.21;86.64;95912.72;5003193;28;20221;-69
2023/10/04 00:30:12;;;;;;;19.70;9.97;;;;;;;13.30;86.55;95907.13;5023684;28;20233;-69
2023/10/04 00:32:38;;;;;;;21.10;9.70;;;;;;;13.25;86.57;95909.53;5018932;28;20230;-69
2023/10/04 00:35:09;;;;;;;21.87;9.67;;;;;;;13.03;87.89;95910.53;5002544;28;20875;-69
2023/10/04 00:37:35;;;;;;;20.83;9.83;;;;;;;13.27;86.88;95911.97;5006924;28;20230;-69
2023/10/04 00:40:00;;;;;;;20.97;10.00;;;;;;;13.15;87.07;95911.69;5017073;28;20218;-68
2023/10/04 00:42:47;;;;;;;22.20;10.00;;;;;;;13.04;88.06;95904.25;5042256;28;20299;-68
2023/10/04 00:45:13;;;;;;;22.47;9.90;;;;;;;12.88;88.28;95907.19;5022829;28;20230;-70
2023/10/04 00:47:50;;;;;;;20.43;10.30;;;;;;;13.05;87.72;95911.16;5041630;28;20617;-69
2023/10/04 00:50:22;;;;;;;22.07;10.20;;;;;;;13.00;87.52;95902.22;5008472;28;20260;-70
2023/10/04 00:53:11;;;;;;;22.50;10.60;;;;;;;12.89;88.39;95902.75;4984192;28;20230;-69
2023/10/04 00:55:42;;;;;;;23.20;10.23;;;;;;;12.89;88.36;95903.56;5010042;28;20722;-69
2023/10/04 00:58:08;;;;;;;25.47;10.50;;;;;;;12.88;88.25;95908.97;4991918;28;20229;-70
2023/10/04 01:00:36;;;;;;;22.73;9.87;;;;;;;12.84;88.42;95900.69;5017560;28;20665;-69
2023/10/04 01:03:02;;;;;;;21.87;9.97;;;;;;;12.97;88.17;95907.88;4991230;28;20741;-69
2023/10/04 01:05:29;;;;;;;20.80;10.03;;;;;;;12.85;88.42;95897.84;5007709;28;20234;-69
2023/10/04 01:07:54;;;;;;;22.57;9.93;;;;;;;12.84;88.14;95908.56;5014393;28;20248;-69
2023/10/04 01:10:24;;;;;;;20.87;9.77;;;;;;;12.71;89.00;95911.88;5007420;28;20234;-69
2023/10/04 01:12:51;;;;;;;24.17;10.40;;;;;;;12.64;89.27;95913.63;5006935;28;20233;-70
2023/10/04 01:15:51;;;;;;;21.77;10.23;;;;;;;12.75;88.87;95914.94;5023706;28;20229;-69
2023/10/04 01:18:12;;;;;;;21.43;10.17;;;;;;;12.67;88.98;95909.81;5016093;28;20229;-70
2023/10/04 01:20:39;;;;;;;25.00;10.57;;;;;;;12.51;89.91;95915.31;5007321;28;20309;-70
2023/10/04 01:23:06;;;;;;;23.97;10.80;;;;;;;12.83;88.83;95906.94;4999915;28;20622;-70
2023/10/04 01:25:35;;;;;;;27.40;11.40;;;;;;;12.71;88.58;95919.75;4999160;28;20260;-68
2023/10/04 01:28:12;;;;;;;24.70;11.20;;;;;;;12.73;88.42;95911.69;5023207;28;20317;-69
2023/10/04 01:30:41;;;;;;;26.20;11.80;;;;;;;12.87;87.64;95910.00;5003791;28;20225;-69
2023/10/04 01:33:16;;;;;;;27.17;11.93;;;;;;;12.66;88.37;95913.44;5006422;28;20655;-69
2023/10/04 01:35:45;;;;;;;26.40;12.27;;;;;;;12.74;87.79;95910.69;5018843;28;20259;-77
2023/10/04 01:38:12;;;;;;;26.60;12.23;;;;;;;12.61;88.41;95916.63;5006990;28;21107;-77
2023/10/04 01:40:39;;;;;;;31.63;11.83;;;;;;;12.78;87.50;95915.38;5024115;28;20284;-77
2023/10/04 01:43:38;;;;;;;27.27;12.23;;;;;;;12.64;87.90;95915.44;5020619;28;20599;-77
2023/10/04 01:45:57;;;;;;;28.77;12.63;;;;;;;12.54;88.65;95912.31;5014086;28;20246;-77
2023/10/04 01:48:23;;;;;;;30.00;12.00;;;;;;;12.69;87.79;95915.69;5007516;28;20264;-77
2023/10/04 01:50:51;;;;;;;25.60;11.77;;;;;;;12.73;87.23;95912.50;4997518;28;20236;-76
2023/10/04 01:53:21;;;;;;;25.93;12.10;;;;;;;12.54;88.00;95915.75;5002252;28;20245;-77
2023/10/04 01:55:47;;;;;;;26.50;12.10;;;;;;;12.60;87.97;95909.75;4986835;28;20230;-77
2023/10/04 01:58:15;;;;;;;26.17;12.37;;;;;;;12.51;88.64;95912.69;5006637;28;20294;-78
2023/10/04 02:00:40;;;;;;;26.67;11.70;;;;;;;12.40;89.01;95911.38;5006940;28;20230;-77
2023/10/04 02:03:07;;;;;;;24.30;12.00;;;;;;;12.34;89.55;95904.25;4983656;28;20287;-77
2023/10/04 02:05:37;;;;;;;25.10;11.80;;;;;;;12.30;89.55;95905.59;5008874;28;20291;-77
2023/10/04 02:08:05;;;;;;;25.60;11.40;;;;;;;12.32;89.69;95906.25;5017167;28;20423;-77
2023/10/04 02:10:31;;;;;;;24.23;11.50;;;;;;;12.33;89.45;95909.66;5000206;28;20284;-77
2023/10/04 02:12:59;;;;;;;26.83;11.33;;;;;;;12.43;89.35;95913.63;4989959;28;20225;-77
2023/10/04 02:15:25;;;;;;;26.93;11.57;;;;;;;12.34;89.82;95908.66;5016792;28;20236;-77
2023/10/04 02:17:50;;;;;;;21.47;11.30;;;;;;;12.19;90.73;95911.34;5006424;28;20304;-77
2023/10/04 02:20:24;;;;;;;23.47;11.17;;;;;;;12.42;89.42;95914.59;5022622;28;20229;-77
2023/10/04 02:22:54;;;;;;;26.20;11.67;;;;;;;12.29;89.77;95914.47;5021922;28;20225;-75
2023/10/04 02:25:20;;;;;;;27.07;11.90;;;;;;;12.10;90.97;95908.03;5006932;28;20234;-77
2023/10/04 02:27:46;;;;;;;24.47;11.20;;;;;;;12.21;90.53;95906.72;5014186;28;20266;-76
2023/10/04 02:30:26;;;;;;;24.07;11.53;;;;;;;12.24;90.43;95908.97;4990508;28;20221;-77
2023/10/04 02:32:52;;;;;;;26.53;11.50;;;;;;;12.13;91.21;95907.63;5001676;28;20221;-79
2023/10/04 02:35:28;;;;;;;27.03;11.60;;;;;;;12.09;91.23;95909.00;4998742;28;20316;-78
2023/10/04 02:38:09;;;;;;;25.17;11.57;;;;;;;12.00;91.29;95907.50;5009167;28;20316;-77
2023/10/04 02:40:37;;;;;;;29.00;12.10;;;;;;;12.05;91.56;95915.63;5016980;28;20233;-78
2023/10/04 02:43:03;;;;;;;25.40;11.37;;;;;;;12.20;90.84;95922.66;5000010;28;20242;-77
2023/10/04 02:45:29;;;;;;;26.57;11.80;;;;;;;12.04;91.08;95916.63;5023721;28;20229;-77
2023/10/04 02:47:55;;;;;;;26.83;11.23;;;;;;;12.23;90.60;95915.22;4995174;28;20229;-77
2023/10/04 02:50:21;;;;;;;23.03;11.03;;;;;;;11.97;91.72;95915.72;5005750;28;20244;-78
2023/10/04 02:52:47;;;;;;;27.30;11.93;;;;;;;11.95;91.95;95917.72;4998203;28;20773;-77
2023/10/04 02:55:15;;;;;;;26.87;11.90;;;;;;;12.02;91.36;95915.16;4998108;28;20226;-77
2023/10/04 02:57:51;;;;;;;30.17;11.97;;;;;;;11.91;92.17;95913.03;5005387;28;20230;-77
2023/10/04 03:00:19;;;;;;;23.70;11.03;;;;;;;12.01;91.44;95911.72;5015626;28;20645;-76
2023/10/04 03:02:49;;;;;;;26.13;11.97;;;;;;;12.04;91.39;95908.75;5021332;28;20988;-76
2023/10/04 03:05:18;;;;;;;26.60;11.70;;;;;;;11.96;91.56;95911.50;5015053;28;20221;-76
2023/10/04 03:07:43;;;;;;;25.23;11.57;;;;;;;12.01;91.20;95916.97;5016036;28;20237;-77
2023/10/04 03:10:13;;;;;;;24.57;11.83;;;;;;;12.14;90.42;95908.44;5039081;28;20267;-76
2023/10/04 03:12:38;;;;;;;25.40;12.07;;;;;;;12.04;90.77;95913.16;5004989;28;20233;-77
2023/10/04 03:15:05;;;;;;;28.63;11.83;;;;;;;11.96;91.06;95916.75;5021245;28;20234;-78
2023/10/04 03:17:30;;;;;;;28.03;11.60;;;;;;;11.95;91.47;95914.28;5024360;28;20367;-78
2023/10/04 03:19:56;;;;;;;27.07;12.30;;;;;;;11.94;91.52;95910.03;5041490;28;20320;-77
2023/10/04 03:22:23;;;;;;;23.70;11.47;;;;;;;11.95;91.40;95915.09;5024827;28;20237;-78
2023/10/04 03:24:51;;;;;;;29.53;12.00;;;;;;;11.84;91.62;95917.38;5022487;28;20229;-76
2023/10/04 03:27:21;;;;;;;28.77;12.30;;;;;;;11.77;92.36;95919.91;5022388;28;20359;-77
2023/10/04 03:29:52;;;;;;;24.20;12.03;;;;;;;11.64;92.79;95914.47;5006183;28;20304;-77
2023/10/04 03:32:18;;;;;;;26.37;12.43;;;;;;;11.78;92.23;95916.28;5017757;28;20249;-76
2023/10/04 03:34:44;;;;;;;26.17;11.50;;;;;;;11.82;91.61;95920.16;5022417;28;20244;-78
2023/10/04 03:37:13;;;;;;;24.57;11.70;;;;;;;11.61;93.07;95919.25;5038630;28;20691;-78
2023/10/04 03:39:39;;;;;;;27.80;11.90;;;;;;;11.74;92.64;95914.22;5021707;28;20387;-77
2023/10/04 03:42:05;;;;;;;26.40;11.90;;;;;;;11.69;92.89;95919.19;5005074;28;20230;-78
2023/10/04 03:44:31;;;;;;;30.10;12.00;;;;;;;11.54;93.45;95919.16;4989370;28;20602;-78
2023/10/04 03:46:57;;;;;;;24.27;11.50;;;;;;;11.77;92.27;95922.53;5011188;28;20237;-77
2023/10/04 03:49:23;;;;;;;27.80;12.23;;;;;;;11.86;91.95;95918.81;5037283;28;20294;-77
2023/10/04 03:51:53;;;;;;;27.50;12.03;;;;;;;11.71;92.70;95919.81;5012237;28;20317;-74
2023/10/04 03:54:19;;;;;;;31.47;12.90;;;;;;;11.78;91.98;95923.34;5002475;28;20237;-77
2023/10/04 03:56:46;;;;;;;29.13;12.17;;;;;;;11.80;92.25;95916.91;5005500;28;20234;-69
2023/10/04 03:59:11;;;;;;;26.23;12.20;;;;;;;11.70;92.59;95918.19;4998299;28;20234;-69
2023/10/04 04:01:37;;;;;;;26.73;11.70;;;;;;;11.76;91.64;95920.09;4998238;28;20232;-69
2023/10/04 04:04:14;;;;;;;28.83;13.50;;;;;;;11.68;91.73;95920.97;5021313;28;20230;-69
2023/10/04 04:06:40;;;;;;;28.63;12.33;;;;;;;11.45;91.89;95920.25;5019474;28;20687;-69
2023/10/04 04:09:09;;;;;;;25.27;12.03;;;;;;;11.48;91.74;95914.66;4988714;28;20258;-70
2023/10/04 04:11:35;;;;;;;26.73;11.30;;;;;;;11.39;92.08;95920.97;5008743;28;20245;-69
2023/10/04 04:14:01;;;;;;;25.80;11.77;;;;;;;11.42;92.00;95915.34;4997956;28;20230;-68
2023/10/04 04:16:27;;;;;;;29.80;11.80;;;;;;;11.43;91.96;95914.38;5007998;28;20376;-69
2023/10/04 04:18:54;;;;;;;33.13;12.30;;;;;;;11.28;92.92;95916.97;4991815;28;20241;-77
2023/10/04 04:21:20;;;;;;;28.63;12.13;;;;;;;11.50;92.27;95916.09;5017497;28;20240;-77
2023/10/04 04:23:46;;;;;;;30.53;12.20;;;;;;;11.32;92.85;95920.06;5024911;28;20759;-77
2023/10/04 04:26:12;;;;;;;30.27;12.67;;;;;;;11.45;92.90;95915.00;5021114;28;20229;-77
2023/10/04 04:28:40;;;;;;;30.00;12.67;;;;;;;11.48;92.55;95925.13;5018037;28;20317;-77
2023/10/04 04:31:11;;;;;;;34.83;14.20;;;;;;;11.47;92.73;95913.00;5017054;28;20240;-77
2023/10/04 04:33:40;;;;;;;32.67;13.03;;;;;;;11.35;92.78;95915.25;4986599;28;20233;-77
2023/10/04 04:36:12;;;;;;;30.10;12.70;;;;;;;11.49;92.84;95919.69;5021930;28;20237;-77
2023/10/04 04:38:38;;;;;;;35.43;13.20;;;;;;;11.31;93.25;95911.38;5023627;28;20233;-77
2023/10/04 04:41:11;;;;;;;32.57;12.90;;;;;;;11.45;92.89;95907.13;5002172;28;20234;-78
2023/10/04 04:43:38;;;;;;;31.83;12.37;;;;;;;11.46;93.23;95906.94;5010583;28;20327;-77
2023/10/04 04:46:12;;;;;;;29.60;12.90;;;;;;;11.46;93.59;95914.81;5005216;28;20255;-77
2023/10/04 04:48:38;;;;;;;25.73;11.97;;;;;;;11.29;93.88;95913.38;4992681;28;20222;-78
2023/10/04 04:53:39;;;;;;;31.57;12.30;;;;;;;11.60;92.61;95913.19;5024425;28;20330;-78
2023/10/04 04:56:13;;;;;;;30.97;12.30;;;;;;;11.59;92.56;95918.59;5040411;28;20345;-77
2023/10/04 04:58:44;;;;;;;26.00;12.30;;;;;;;11.75;91.65;95921.88;5004159;28;20222;-77
2023/10/04 05:01:11;;;;;;;33.17;12.33;;;;;;;11.84;90.87;95920.81;4990365;28;20306;-76
2023/10/04 05:03:41;;;;;;;27.23;12.07;;;;;;;11.77;91.36;95919.09;5019679;28;20287;-77
2023/10/04 05:06:07;;;;;;;30.30;12.73;;;;;;;11.72;90.87;95918.84;4991549;28;20643;-78
2023/10/04 05:08:32;;;;;;;25.93;12.10;;;;;;;11.81;90.93;95925.59;5040384;28;20222;-77
2023/10/04 05:10:59;;;;;;;27.03;11.97;;;;;;;11.87;90.11;95928.31;5003770;28;20229;-77
2023/10/04 05:13:25;;;;;;;29.27;12.10;;;;;;;11.91;90.34;95928.75;4995546;28;20222;-77
2023/10/04 05:15:51;;;;;;;29.83;13.37;;;;;;;11.88;90.15;95940.44;5017463;28;20242;-77
2023/10/04 05:18:17;;;;;;;33.30;13.10;;;;;;;12.01;88.78;95937.97;5024049;28;20221;-76
2023/10/04 05:20:53;;;;;;;36.00;12.80;;;;;;;12.00;89.22;95938.16;4998950;28;20238;-76
2023/10/04 05:23:24;;;;;;;36.10;14.00;;;;;;;12.03;89.10;95936.00;5008241;28;20760;-79
2023/10/04 05:25:50;;;;;;;29.47;12.60;;;;;;;11.92;89.48;95933.00;5020902;28;20885;-77
2023/10/04 05:28:16;;;;;;;27.27;12.10;;;;;;;12.11;88.72;95935.88;5018300;28;20272;-78
2023/10/04 05:30:43;;;;;;;26.70;11.63;;;;;;;12.21;87.38;95940.84;4999684;28;20226;-78
2023/10/04 05:33:09;;;;;;;29.30;12.03;;;;;;;12.21;87.65;95940.00;5007194;28;20260;-77
2023/10/04 05:35:35;;;;;;;31.77;12.00;;;;;;;12.32;86.68;95937.75;5040453;28;20252;-77
2023/10/04 05:38:04;;;;;;;32.20;12.30;;;;;;;12.29;87.27;95947.78;5006895;28;20704;-77
2023/10/04 05:40:35;;;;;;;28.73;12.60;;;;;;;12.41;85.79;95948.94;5018378;28;20254;-77
2023/10/04 05:43:01;;;;;;;33.40;12.53;;;;;;;12.27;86.58;95950.59;5019733;28;20284;-77
2023/10/04 05:45:26;;;;;;;28.17;12.57;;;;;;;12.32;86.95;95953.50;5018745;28;20353;-77
2023/10/04 05:47:52;;;;;;;29.60;12.50;;;;;;;12.48;86.07;95957.69;5000452;28;20731;-75
2023/10/04 05:50:18;;;;;;;32.97;12.83;;;;;;;12.57;85.52;95948.69;5002911;28;20237;-77
2023/10/04 05:52:44;;;;;;;31.03;12.90;;;;;;;12.42;85.46;95950.56;5009761;28;20325;-76
2023/10/04 05:55:10;;;;;;;26.30;12.27;;;;;;;12.34;86.19;95959.38;5005772;28;20219;-77
2023/10/04 05:57:36;;;;;;;30.27;13.00;;;;;;;12.55;85.82;95963.84;5040487;28;20303;-77
2023/10/04 06:00:26;;;;;;;33.20;13.23;;;;;;;12.63;84.74;95961.09;4999213;28;20272;-77
2023/10/04 06:02:56;;;;;;;28.97;12.60;;;;;;;12.75;84.26;95965.66;5027178;28;20234;-76
2023/10/04 06:05:22;;;;;;;36.03;12.80;;;;;;;12.64;84.76;95966.16;5006625;28;20230;-77
2023/10/04 06:07:49;;;;;;;34.77;13.80;;;;;;;12.76;83.73;95967.28;5014361;28;20228;-77
2023/10/04 06:10:16;;;;;;;28.83;12.80;;;;;;;12.65;84.10;95962.53;5002661;28;20230;-77
2023/10/04 06:12:42;;;;;;;31.77;13.60;;;;;;;12.85;82.85;95967.97;5001193;28;20229;-78
2023/10/04 06:15:10;;;;;;;43.37;14.30;;;;;;;13.01;82.67;95970.38;5015129;28;20226;-77
2023/10/04 06:17:42;;;;;;;32.43;13.17;;;;;;;13.08;82.34;95968.66;4999420;28;20230;-77
2023/10/04 06:20:22;;;;;;;35.80;13.37;;;;;;;13.27;81.27;95967.19;5017036;28;20223;-76
2023/10/04 06:22:49;;;;;;;32.27;13.00;;;;;;;13.29;81.07;95970.44;5023959;28;20225;-75
2023/10/04 06:25:15;;;;;;;34.73;13.97;;;;;;;13.21;81.14;95968.75;5006991;28;20222;-77
2023/10/04 06:27:41;;;;;;;29.70;13.50;;;;;;;13.31;81.31;95973.69;5000761;28;20238;-77
2023/10/04 06:30:08;;;;;;;34.70;13.77;;;;;;;13.33;81.02;95977.75;5023630;28;20238;-78
2023/10/04 06:32:37;;;;;;;39.53;14.60;;;;;;;13.37;80.39;95980.81;5039974;28;20316;-77
2023/10/04 06:35:03;;;;;;;34.30;14.23;;;;;;;13.38;81.25;95978.00;5022096;28;20862;-77
2023/10/04 06:37:29;;;;;;;33.27;13.47;;;;;;;13.52;81.07;95979.72;5039673;28;20249;-69
2023/10/04 06:39:55;;;;;;;32.30;13.73;;;;;;;13.61;80.65;95974.31;5023065;28;20229;-71
2023/10/04 06:42:21;;;;;;;36.57;15.57;;;;;;;13.75;79.94;95981.28;5015948;28;20240;-69
2023/10/04 06:44:47;;;;;;;33.00;14.57;;;;;;;13.80;79.56;95992.06;5021652;28;20254;-68
2023/10/04 06:47:15;;;;;;;33.97;15.07;;;;;;;13.83;79.34;95981.94;4996140;28;20218;-79
2023/10/04 06:49:40;;;;;;;34.93;14.77;;;;;;;13.88;79.31;95989.25;4997698;28;20699;-79
2023/10/04 06:52:07;;;;;;;39.17;15.40;;;;;;;13.97;78.66;95983.63;5020407;28;20237;-78
2023/10/04 06:54:33;;;;;;;33.33;14.63;;;;;;;13.91;79.45;95997.59;5004409;28;20257;-76
2023/10/04 06:56:59;;;;;;;31.57;13.63;;;;;;;14.03;78.64;95995.22;5016588;28;20242;-80
2023/10/04 06:59:25;;;;;;;32.50;14.00;;;;;;;14.17;78.09;95997.72;5017013;28;20245;-78
2023/10/04 07:01:51;;;;;;;28.03;13.27;;;;;;;14.22;78.03;95989.25;5015525;28;20253;-78
2023/10/04 07:04:16;;;;;;;34.10;14.17;;;;;;;14.32;77.22;95992.38;5004217;28;20225;-78
2023/10/04 07:06:42;;;;;;;35.00;13.83;;;;;;;14.36;77.09;95988.31;5036519;28;20287;-78
2023/10/04 07:09:09;;;;;;;33.03;14.30;;;;;;;14.44;76.72;95989.97;5016863;28;20283;-76
2023/10/04 07:11:34;;;;;;;32.67;13.97;;;;;;;14.53;77.15;95994.06;5020161;28;20784;-76
2023/10/04 07:14:00;;;;;;;32.87;14.67;;;;;;;14.53;75.65;95992.25;5023168;28;20257;-78
2023/10/04 07:16:25;;;;;;;35.83;14.77;;;;;;;14.54;75.52;95980.72;5016153;28;20225;-77
2023/10/04 07:18:51;;;;;;;45.27;15.30;;;;;;;14.68;75.75;95984.19;5003900;28;20747;-77
2023/10/04 07:21:17;;;;;;;41.13;15.57;;;;;;;14.63;75.94;95979.50;5014336;28;20234;-69
2023/10/04 07:23:42;;;;;;;31.87;14.80;;;;;;;14.65;75.31;95974.84;5015694;28;20229;-69
2023/10/04 07:26:09;;;;;;;42.30;15.17;;;;;;;14.68;75.55;95966.56;5020154;28;20236;-69
2023/10/04 07:28:37;;;;;;;33.83;14.03;;;;;;;14.82;75.31;95970.84;5020428;28;20241;-68
2023/10/04 07:31:03;;;;;;;32.57;14.70;;;;;;;15.06;75.10;95968.66;5004097;28;20338;-68
2023/10/04 07:33:28;;;;;;;43.60;15.80;;;;;;;15.08;73.84;95972.72;5020439;28;20280;-68
2023/10/04 07:35:55;;;;;;;33.73;15.63;;;;;;;14.99;74.08;95968.66;5036381;28;20603;-68
2023/10/04 07:38:21;;;;;;;34.13;14.40;;;;;;;15.18;73.13;95967.84;4987122;28;20321;-68
2023/10/04 07:40:47;;;;;;;40.83;15.13;;;;;;;15.31;72.65;95959.94;5006130;28;20238;-69
2023/10/04 07:43:13;;;;;;;31.83;14.30;;;;;;;15.45;72.51;95969.50;4997857;28;20618;-69
2023/10/04 07:45:39;;;;;;;29.60;13.73;;;;;;;15.58;71.81;95966.03;5036597;28;20226;-69
2023/10/04 07:48:06;;;;;;;31.70;13.97;;;;;;;15.65;71.75;95952.84;5019768;28;20237;-68
2023/10/04 07:50:32;;;;;;;39.10;14.30;;;;;;;15.43;71.56;95960.94;5039926;28;20234;-69
2023/10/04 07:53:00;;;;;;;34.67;13.93;;;;;;;15.59;72.24;95958.94;5014671;28;20230;-69
2023/10/04 07:55:26;;;;;;;37.97;17.43;;;;;;;15.76;70.18;95957.50;5024465;28;20299;-69
2023/10/04 07:57:53;;;;;;;35.17;15.10;;;;;;;15.77;70.84;95945.91;5020560;28;20316;-68
2023/10/04 08:00:18;;;;;;;31.43;14.13;;;;;;;15.89;70.55;95947.72;5001202;28;20234;-69
2023/10/04 08:02:51;;;;;;;34.27;13.77;;;;;;;15.92;70.32;95949.94;5001629;28;20900;-70
2023/10/04 08:05:20;;;;;;;29.47;12.97;;;;;;;15.92;70.54;95952.59;5025057;28;20237;-69
2023/10/04 08:07:50;;;;;;;33.83;14.37;;;;;;;16.06;70.36;95942.78;5015890;28;20226;-69
2023/10/04 08:10:23;;;;;;;32.87;12.90;;;;;;;16.22;69.53;95946.78;5006431;28;20257;-69
2023/10/04 08:12:51;;;;;;;34.47;13.77;;;;;;;16.39;68.40;95945.31;5007644;28;20226;-69
2023/10/04 08:15:19;;;;;;;34.70;13.60;;;;;;;16.47;67.33;95945.06;5010412;28;20233;-69
2023/10/04 08:17:48;;;;;;;32.40;13.10;;;;;;;16.58;67.31;95947.88;5014456;28;20325;-70
2023/10/04 08:20:14;;;;;;;27.27;13.07;;;;;;;16.64;67.85;95944.41;5015723;28;20226;-69
2023/10/04 08:22:42;;;;;;;33.60;13.47;;;;;;;16.59;67.27;95941.59;5013705;28;20214;-69
2023/10/04 08:25:09;;;;;;;37.13;14.37;;;;;;;16.75;67.26;95941.09;5010668;28;20268;-68
2023/10/04 08:27:35;;;;;;;38.93;15.57;;;;;;;16.70;67.41;95937.44;5017961;28;20225;-69
2023/10/04 08:30:07;;;;;;;28.27;12.33;;;;;;;16.63;67.52;95929.56;5002297;28;20222;-69
2023/10/04 08:32:33;;;;;;;30.70;13.07;;;;;;;16.93;66.94;95935.09;5018834;28;20222;-69
2023/10/04 08:34:59;;;;;;;30.73;13.10;;;;;;;16.97;65.72;95938.09;5037894;28;20247;-68
2023/10/04 08:37:26;;;;;;;29.60;13.00;;;;;;;16.89;66.56;95933.88;5022821;28;20238;-69
2023/10/04 08:39:52;;;;;;;30.53;12.33;;;;;;;16.82;66.61;95931.28;5016541;28;20230;-69
2023/10/04 08:42:18;;;;;;;35.07;12.60;;;;;;;17.02;66.34;95932.97;5015434;28;20230;-69
2023/10/04 08:44:45;;;;;;;30.40;12.03;;;;;;;17.18;66.52;95921.88;5007585;28;20222;-69
2023/10/04 08:47:10;;;;;;;31.23;12.97;;;;;;;17.25;65.90;95925.28;5003777;28;20222;-68
2023/10/04 08:49:46;;;;;;;37.43;12.87;;;;;;;17.16;66.24;95926.56;5006160;28;20731;-69
2023/10/04 08:52:20;;;;;;;28.47;12.73;;;;;;;17.33;65.94;95928.47;5007811;28;20262;-70
2023/10/04 08:54:50;;;;;;;36.43;13.53;;;;;;;17.33;65.68;95928.47;4990512;28;20453;-69
2023/10/04 08:57:20;;;;;;;32.80;13.00;;;;;;;17.42;65.20;95924.53;5008675;28;20225;-69
2023/10/04 08:59:45;;;;;;;33.57;12.93;;;;;;;17.55;64.20;95925.47;5015205;28;20710;-69
2023/10/04 09:02:11;;;;;;;29.37;12.13;;;;;;;17.60;64.08;95922.97;5007543;28;20218;-69
2023/10/04 09:04:36;;;;;;;31.80;12.53;;;;;;;17.68;63.29;95923.50;5000855;28;20222;-69
2023/10/04 09:07:02;;;;;;;26.07;12.27;;;;;;;17.81;63.15;95922.56;5010039;28;20665;-68
2023/10/04 09:09:31;;;;;;;30.37;12.67;;;;;;;18.02;62.71;95917.63;4990443;28;20280;-69
2023/10/04 09:11:57;;;;;;;34.10;12.70;;;;;;;18.11;62.72;95916.31;5014307;28;20226;-69
2023/10/04 09:14:22;;;;;;;26.27;12.10;;;;;;;18.25;61.35;95922.25;5012995;28;20233;-68
2023/10/04 09:17:03;;;;;;;25.37;12.10;;;;;;;18.33;61.33;95921.97;5025013;28;20795;-69
2023/10/04 09:19:29;;;;;;;29.43;12.57;;;;;;;18.37;60.86;95923.13;5008012;28;20973;-68
2023/10/04 09:21:56;;;;;;;28.53;12.07;;;;;;;18.36;61.76;95918.06;5024966;28;20257;-69
2023/10/04 09:24:22;;;;;;;28.67;11.90;;;;;;;18.53;60.60;95917.22;5025074;28;20220;-68
2023/10/04 09:26:52;;;;;;;35.63;16.70;;;;;;;18.70;59.73;95912.13;5005992;28;20231;-69
2023/10/04 09:29:33;;;;;;;28.70;13.50;;;;;;;18.66;60.74;95911.75;4999800;28;20215;-69
2023/10/04 09:31:58;;;;;;;29.87;12.63;;;;;;;18.77;59.78;95905.69;5016530;28;20280;-69
2023/10/04 09:34:24;;;;;;;30.47;12.23;;;;;;;18.92;59.41;95904.44;5003403;28;20939;-69
2023/10/04 09:36:52;;;;;;;35.60;12.87;;;;;;;19.07;58.10;95902.19;5018713;28;20222;-76
2023/10/04 09:39:23;;;;;;;27.77;12.27;;;;;;;19.02;59.22;95894.09;5007451;28;20226;-77
2023/10/04 09:41:49;;;;;;;30.63;12.47;;;;;;;19.12;59.27;95892.50;4992376;28;20284;-77
2023/10/04 09:44:20;;;;;;;28.87;11.33;;;;;;;19.37;58.30;95894.97;5024053;28;20238;-77
2023/10/04 09:46:50;;;;;;;23.50;11.93;;;;;;;19.54;56.81;95895.09;5007727;28;20309;-76
2023/10/04 09:49:16;;;;;;;28.17;11.53;;;;;;;19.57;56.44;95898.09;5018900;28;20248;-76
2023/10/04 09:51:44;;;;;;;28.93;12.50;;;;;;;19.52;57.41;95897.19;5005761;28;20248;-78
2023/10/04 09:54:09;;;;;;;25.00;12.07;;;;;;;19.59;56.59;95898.69;5022342;28;20317;-77
2023/10/04 09:56:40;;;;;;;27.83;11.70;;;;;;;19.61;56.81;95904.56;5000558;28;20233;-77
2023/10/04 09:59:07;;;;;;;33.00;12.27;;;;;;;19.83;55.07;95900.28;5022631;28;20222;-76
2023/10/04 10:01:33;;;;;;;29.03;11.70;;;;;;;19.80;55.65;95894.66;5017030;28;20284;-76
2023/10/04 10:04:07;;;;;;;26.87;11.43;;;;;;;19.88;56.38;95886.31;5000099;28;20225;-78
2023/10/04 10:06:38;;;;;;;25.20;10.47;;;;;;;20.08;55.43;95884.88;5023050;28;20731;-76
2023/10/04 10:09:07;;;;;;;29.03;10.70;;;;;;;20.21;54.84;95877.66;5007533;28;20695;-76
2023/10/04 10:11:33;;;;;;;28.00;10.70;;;;;;;20.41;53.36;95873.59;5016559;28;20230;-76
2023/10/04 10:13:58;;;;;;;28.23;10.77;;;;;;;20.45;53.68;95876.59;5004565;28;20222;-77
2023/10/04 10:16:24;;;;;;;25.30;11.20;;;;;;;20.49;54.90;95867.09;5018593;28;20229;-76
2023/10/04 10:18:49;;;;;;;28.90;10.90;;;;;;;20.52;53.08;95867.41;4989335;28;20241;-76
2023/10/04 10:21:15;;;;;;;21.60;10.40;;;;;;;20.62;54.07;95866.81;5022960;28;20226;-78
2023/10/04 10:24:16;;;;;;;25.00;9.97;;;;;;;20.78;51.98;95861.50;5016257;28;20242;-78
2023/10/04 10:26:41;;;;;;;27.50;10.70;;;;;;;20.94;53.30;95859.13;5010240;28;20253;-77
2023/10/04 10:29:07;;;;;;;20.10;9.97;;;;;;;21.12;52.04;95851.72;5013339;28;20301;-77
2023/10/04 10:31:33;;;;;;;25.30;10.30;;;;;;;21.27;50.41;95844.00;4997525;28;20230;-78
2023/10/04 10:34:00;;;;;;;21.93;9.67;;;;;;;21.38;50.69;95848.41;4990218;28;20229;-79
2023/10/04 10:36:27;;;;;;;21.70;9.93;;;;;;;21.31;51.52;95842.44;5001074;28;20233;-78
2023/10/04 10:38:54;;;;;;;23.30;9.73;;;;;;;21.52;50.07;95840.09;5039968;28;20983;-77
2023/10/04 10:41:32;;;;;;;24.50;9.80;;;;;;;21.77;49.00;95835.09;5013900;28;20233;-77
2023/10/04 10:44:19;;;;;;;24.10;9.83;;;;;;;21.86;48.18;95830.97;5024252;28;20774;-78
2023/10/04 10:47:10;;;;;;;21.73;8.47;;;;;;;22.00;48.13;95821.53;5024543;28;20240;-77
2023/10/04 10:49:49;;;;;;;18.83;8.50;;;;;;;22.34;45.83;95819.53;5005655;28;20229;-77
2023/10/04 10:52:24;;;;;;;20.63;9.03;;;;;;;22.39;45.83;95820.41;5014731;28;20232;-77
2023/10/04 10:54:53;;;;;;;22.77;8.97;;;;;;;22.47;46.61;95822.63;5021666;28;20233;-77
2023/10/04 10:57:29;;;;;;;22.93;8.20;;;;;;;22.57;45.79;95821.94;5018292;28;20226;-79
2023/10/04 10:59:56;;;;;;;20.67;9.03;;;;;;;22.50;45.31;95816.78;5037923;28;20236;-78
2023/10/04 11:02:22;;;;;;;20.63;8.93;;;;;;;22.54;46.50;95822.44;5001477;28;20689;-78
2023/10/04 11:04:51;;;;;;;22.60;9.13;;;;;;;22.59;44.91;95814.47;5013766;28;20222;-78
2023/10/04 11:07:21;;;;;;;20.57;8.30;;;;;;;22.75;44.66;95809.06;5021497;28;20230;-77
2023/10/04 11:09:50;;;;;;;18.93;8.37;;;;;;;23.09;43.09;95814.94;5005433;28;20296;-78
2023/10/04 11:12:21;;;;;;;18.80;8.00;;;;;;;23.11;43.91;95815.50;4997840;28;20222;-78
2023/10/04 11:14:47;;;;;;;22.47;8.70;;;;;;;23.16;43.08;95809.38;5017104;28;20317;-74
2023/10/04 11:17:14;;;;;;;20.53;8.57;;;;;;;23.26;43.02;95810.25;5022826;28;20226;-77
2023/10/04 11:19:41;;;;;;;17.17;8.00;;;;;;;23.31;39.72;95804.94;5023905;28;20326;-79
2023/10/04 11:22:08;;;;;;;16.20;7.10;;;;;;;23.33;39.80;95796.69;5020150;28;20236;-78
2023/10/04 11:24:35;;;;;;;14.97;6.77;;;;;;;23.44;39.81;95793.03;5008701;28;20230;-77
2023/10/04 11:27:01;;;;;;;17.87;7.60;;;;;;;23.55;39.58;95792.03;5009828;28;20341;-78